Time;durP1;ratioP1;P1;durP2;ratioP2;P2;SDS_P1;SDS_P2;PMS_P1;PMS_P2;Temp;Humidity;BMP_temperature;BMP_pressure;BME280_temperature;BME280_humidity;BME280_pressure;Samples;Min_cycle;Max_cycle;Signal;HPM_P1;HPM_P2
2023/09/20 00:00:13;;;;;;;9.02;3.10;;;18.90;34.60;;;;;;5033011;28;20423;-77
2023/09/20 00:02:39;;;;;;;9.63;2.55;;;18.80;34.90;;;;;;5016257;28;20868;-77
2023/09/20 00:05:12;;;;;;;8.68;2.72;;;18.80;34.90;;;;;;5015238;28;20390;-78
2023/09/20 00:07:38;;;;;;;5.80;2.80;;;18.80;35.10;;;;;;5032721;28;20407;-77
2023/09/20 00:10:04;;;;;;;9.55;2.70;;;18.70;35.60;;;;;;5032155;28;20403;-74
2023/09/20 00:12:30;;;;;;;15.90;3.00;;;18.70;35.60;;;;;;5031864;28;20476;-76
2023/09/20 00:14:55;;;;;;;10.50;2.70;;;18.60;35.60;;;;;;5032216;28;20383;-75
2023/09/20 00:17:23;;;;;;;5.27;2.50;;;18.60;35.90;;;;;;5032005;28;20872;-74
2023/09/20 00:19:49;;;;;;;12.93;2.92;;;18.60;35.80;;;;;;5032366;28;20445;-76
2023/09/20 00:22:15;;;;;;;11.20;3.05;;;18.60;35.80;;;;;;5031923;28;20395;-75
2023/09/20 00:24:40;;;;;;;13.32;3.30;;;18.70;35.60;;;;;;5031585;28;20395;-75
2023/09/20 00:27:08;;;;;;;6.23;2.30;;;18.60;35.80;;;;;;5013915;28;20459;-76
2023/09/20 00:29:34;;;;;;;7.60;2.63;;;18.60;36.00;;;;;;5031656;28;20391;-76
2023/09/20 00:31:59;;;;;;;6.40;2.60;;;18.60;36.10;;;;;;5032291;28;20811;-75
2023/09/20 00:34:26;;;;;;;5.97;3.13;;;18.60;36.50;;;;;;5032557;28;20391;-74
2023/09/20 00:36:52;;;;;;;9.00;2.53;;;18.50;36.90;;;;;;5033149;28;20740;-74
2023/09/20 00:39:17;;;;;;;8.63;2.40;;;18.60;36.90;;;;;;5032832;28;20383;-74
2023/09/20 00:41:43;;;;;;;7.82;2.90;;;18.50;36.70;;;;;;5033458;28;20383;-74
2023/09/20 00:44:08;;;;;;;9.00;2.63;;;18.50;37.30;;;;;;5034903;28;20448;-76
2023/09/20 00:46:34;;;;;;;8.38;2.65;;;18.40;37.40;;;;;;5031382;28;20391;-76
2023/09/20 00:49:00;;;;;;;10.30;2.90;;;18.30;38.10;;;;;;5013665;28;20526;-76
2023/09/20 00:51:26;;;;;;;4.93;2.30;;;18.20;38.30;;;;;;5031139;28;20411;-76
2023/09/20 00:53:57;;;;;;;8.27;3.20;;;18.10;38.80;;;;;;5031603;28;20899;-76
2023/09/20 00:56:23;;;;;;;7.55;2.53;;;18.00;39.30;;;;;;5031275;28;20394;-74
2023/09/20 00:58:52;;;;;;;7.43;2.80;;;18.00;39.80;;;;;;5031262;28;20390;-74
2023/09/20 01:01:18;;;;;;;9.88;2.70;;;17.90;40.10;;;;;;5030948;28;20375;-76
2023/09/20 01:03:45;;;;;;;6.95;2.92;;;17.90;40.70;;;;;;5031200;28;20868;-76
2023/09/20 01:06:15;;;;;;;6.97;2.50;;;17.70;41.00;;;;;;5031141;28;20387;-75
2023/09/20 01:08:41;;;;;;;10.13;3.10;;;17.60;42.10;;;;;;5030391;28;20876;-74
2023/09/20 01:11:07;;;;;;;5.90;2.80;;;17.60;42.40;;;;;;5030686;28;20515;-77
2023/09/20 01:13:33;;;;;;;12.25;3.40;;;17.60;42.50;;;;;;5031203;28;20391;-77
2023/09/20 01:16:01;;;;;;;10.50;3.23;;;17.50;43.50;;;;;;5013496;28;20406;-76
2023/09/20 01:18:28;;;;;;;9.00;2.80;;;17.30;44.40;;;;;;5031259;28;20492;-76
2023/09/20 01:20:54;;;;;;;6.60;2.80;;;17.40;44.60;;;;;;5030893;28;20391;-77
2023/09/20 01:23:20;;;;;;;7.03;2.80;;;17.30;45.00;;;;;;5030910;28;20919;-76
2023/09/20 01:25:47;;;;;;;7.90;3.35;;;17.30;45.10;;;;;;5030918;28;20410;-77
2023/09/20 01:28:13;;;;;;;8.93;2.78;;;17.20;45.60;;;;;;5031330;28;20844;-77
2023/09/20 01:30:42;;;;;;;12.20;3.60;;;17.10;45.80;;;;;;5031057;28;20395;-77
2023/09/20 01:33:08;;;;;;;9.77;3.10;;;17.10;46.40;;;;;;5031255;28;20413;-77
2023/09/20 01:35:34;;;;;;;12.57;4.03;;;17.10;47.10;;;;;;5031564;28;20744;-77
2023/09/20 01:38:07;;;;;;;12.23;3.20;;;17.00;47.60;;;;;;5030843;28;20379;-75
2023/09/20 01:40:34;;;;;;;5.18;2.88;;;17.00;48.00;;;;;;5013342;28;20506;-76
2023/09/20 01:43:01;;;;;;;7.90;3.60;;;17.00;48.60;;;;;;5030581;28;20386;-76
2023/09/20 01:45:26;;;;;;;6.97;2.80;;;16.90;48.90;;;;;;5030794;28;20462;-76
2023/09/20 01:47:55;;;;;;;10.77;3.00;;;16.80;49.60;;;;;;5012998;28;20430;-76
2023/09/20 01:50:23;;;;;;;7.57;2.90;;;16.80;49.90;;;;;;5030998;28;20811;-76
2023/09/20 01:52:56;;;;;;;7.60;3.22;;;16.90;49.60;;;;;;5030727;28;20403;-75
2023/09/20 01:55:23;;;;;;;9.95;3.05;;;16.90;49.50;;;;;;5012860;28;20395;-76
2023/09/20 01:57:51;;;;;;;8.23;3.30;;;16.80;50.50;;;;;;5012771;28;20383;-76
2023/09/20 02:00:25;;;;;;;7.38;2.92;;;16.80;50.70;;;;;;5030504;28;20795;-75
2023/09/20 02:02:55;;;;;;;10.65;3.28;;;16.80;50.90;;;;;;5012968;28;20399;-76
2023/09/20 02:05:23;;;;;;;7.88;2.72;;;16.70;51.40;;;;;;5031438;28;20395;-76
2023/09/20 02:07:51;;;;;;;7.00;2.72;;;16.70;51.90;;;;;;5014049;28;20391;-77
2023/09/20 02:10:17;;;;;;;7.30;3.05;;;16.80;51.60;;;;;;5030586;28;20442;-75
2023/09/20 02:12:47;;;;;;;6.78;3.10;;;16.90;51.30;;;;;;5030464;28;20460;-76
2023/09/20 02:15:14;;;;;;;7.22;2.55;;;16.80;51.30;;;;;;5031199;28;20444;-77
2023/09/20 02:17:41;;;;;;;8.25;2.92;;;16.80;51.80;;;;;;5031106;28;20383;-76
2023/09/20 02:20:11;;;;;;;6.07;3.10;;;16.80;51.90;;;;;;5032458;28;20403;-76
2023/09/20 02:22:38;;;;;;;10.07;2.92;;;16.80;51.40;;;;;;5034364;28;20462;-75
2023/09/20 02:25:12;;;;;;;8.57;2.90;;;16.70;52.40;;;;;;5034692;28;20478;-75
2023/09/20 02:27:40;;;;;;;8.07;3.63;;;16.70;52.70;;;;;;5034131;28;20420;-76
2023/09/20 02:30:09;;;;;;;11.30;3.25;;;16.60;53.30;;;;;;5034135;28;20409;-75
2023/09/20 02:32:35;;;;;;;7.55;3.40;;;16.70;53.50;;;;;;5016482;28;20430;-75
2023/09/20 02:35:03;;;;;;;8.02;3.10;;;16.70;53.60;;;;;;5034591;28;20445;-76
2023/09/20 02:37:29;;;;;;;7.53;2.67;;;16.80;52.40;;;;;;5034068;28;20411;-75
2023/09/20 02:39:54;;;;;;;10.60;3.10;;;16.90;52.50;;;;;;5034055;28;20393;-76
2023/09/20 02:42:22;;;;;;;9.95;3.20;;;16.90;52.20;;;;;;5034272;28;20399;-76
2023/09/20 02:44:50;;;;;;;10.73;3.40;;;17.00;51.50;;;;;;5034243;28;20423;-74
2023/09/20 02:47:18;;;;;;;8.95;3.40;;;16.90;51.50;;;;;;5033792;28;20478;-76
2023/09/20 02:49:48;;;;;;;8.23;2.72;;;16.90;52.00;;;;;;5034088;28;20466;-77
2023/09/20 02:52:17;;;;;;;10.18;3.25;;;17.00;51.10;;;;;;5035277;28;20407;-74
2023/09/20 02:54:43;;;;;;;7.53;2.80;;;17.00;51.30;;;;;;5035915;28;20414;-76
2023/09/20 02:57:11;;;;;;;6.97;3.28;;;17.00;51.40;;;;;;5033237;28;20441;-76
2023/09/20 02:59:38;;;;;;;8.45;3.60;;;17.00;51.60;;;;;;5033776;28;20410;-76
2023/09/20 03:02:05;;;;;;;11.17;3.23;;;16.90;51.90;;;;;;5033974;28;20386;-74
2023/09/20 03:04:30;;;;;;;7.32;3.53;;;16.90;52.20;;;;;;5033580;28;20421;-75
2023/09/20 03:06:56;;;;;;;7.72;3.30;;;16.90;52.40;;;;;;5033547;28;20407;-75
2023/09/20 03:09:24;;;;;;;11.05;3.30;;;16.80;52.40;;;;;;5033477;28;20448;-74
2023/09/20 03:11:50;;;;;;;7.60;3.60;;;16.80;53.30;;;;;;5033622;28;20442;-77
2023/09/20 03:14:16;;;;;;;6.70;3.30;;;16.70;54.10;;;;;;5033590;28;20962;-75
2023/09/20 03:16:43;;;;;;;7.65;3.10;;;16.70;54.30;;;;;;5033234;28;20430;-75
2023/09/20 03:19:09;;;;;;;9.90;3.63;;;16.70;54.60;;;;;;5033388;28;20387;-76
2023/09/20 03:21:35;;;;;;;12.05;3.80;;;16.70;54.30;;;;;;5034994;28;20422;-75
2023/09/20 03:24:05;;;;;;;9.77;3.83;;;16.60;55.10;;;;;;5033679;28;20486;-76
2023/09/20 03:26:32;;;;;;;13.40;3.60;;;16.50;56.70;;;;;;5034569;28;20790;-74
2023/09/20 03:28:57;;;;;;;9.70;3.17;;;16.30;58.10;;;;;;5034179;28;20393;-76
2023/09/20 03:31:26;;;;;;;11.85;3.50;;;16.20;59.10;;;;;;5034795;28;20764;-76
2023/09/20 03:33:52;;;;;;;9.38;3.92;;;16.20;60.50;;;;;;5033422;28;20458;-77
2023/09/20 03:36:17;;;;;;;8.83;3.80;;;16.30;59.90;;;;;;5016009;28;20859;-77
2023/09/20 03:38:44;;;;;;;10.40;3.77;;;16.20;59.80;;;;;;5033751;28;20473;-77
2023/09/20 03:41:10;;;;;;;8.32;3.55;;;16.10;61.10;;;;;;5033253;28;20379;-76
2023/09/20 03:43:37;;;;;;;8.60;3.50;;;16.00;62.20;;;;;;5032774;28;20387;-76
2023/09/20 03:46:02;;;;;;;9.38;3.90;;;16.00;63.70;;;;;;5032845;28;20391;-77
2023/09/20 03:48:28;;;;;;;6.25;3.30;;;15.90;64.30;;;;;;5015307;28;20812;-76
2023/09/20 03:50:53;;;;;;;9.13;4.17;;;15.90;64.70;;;;;;5014739;28;20470;-76
2023/09/20 03:53:19;;;;;;;8.50;3.80;;;16.00;64.10;;;;;;5032829;28;20413;-77
2023/09/20 03:55:46;;;;;;;13.73;3.83;;;16.00;64.60;;;;;;5032782;28;20410;-75
2023/09/20 03:58:11;;;;;;;11.27;3.90;;;15.90;65.30;;;;;;5032741;28;20383;-76
2023/09/20 04:00:38;;;;;;;8.47;4.00;;;15.80;66.20;;;;;;5032545;28;20745;-76
2023/09/20 04:03:05;;;;;;;9.10;3.63;;;15.80;65.80;;;;;;5033250;28;20693;-76
2023/09/20 04:05:33;;;;;;;11.25;3.88;;;15.80;66.60;;;;;;5032745;28;20716;-76
2023/09/20 04:08:00;;;;;;;9.35;4.10;;;15.70;67.00;;;;;;5032591;28;20478;-76
2023/09/20 04:10:26;;;;;;;8.20;4.20;;;15.70;67.70;;;;;;5032117;28;20398;-76
2023/09/20 04:12:52;;;;;;;11.60;4.50;;;15.70;68.80;;;;;;5032644;28;20776;-75
2023/09/20 04:15:18;;;;;;;8.40;4.30;;;15.70;69.20;;;;;;5032085;28;20383;-76
2023/09/20 04:17:43;;;;;;;12.32;4.63;;;15.70;69.30;;;;;;5032484;28;20388;-76
2023/09/20 04:20:11;;;;;;;7.72;4.13;;;15.60;69.20;;;;;;5032324;28;20387;-76
2023/09/20 04:22:42;;;;;;;12.27;4.40;;;15.70;69.70;;;;;;5032864;28;20387;-76
2023/09/20 04:25:10;;;;;;;9.13;4.00;;;15.70;69.70;;;;;;5033175;28;20406;-76
2023/09/20 04:27:36;;;;;;;9.50;4.18;;;15.70;69.80;;;;;;5017225;28;20400;-76
2023/09/20 04:30:03;;;;;;;14.20;4.00;;;15.60;70.70;;;;;;5015031;28;20820;-76
2023/09/20 04:32:29;;;;;;;10.40;4.27;;;15.50;71.80;;;;;;5032559;28;20461;-76
2023/09/20 04:34:56;;;;;;;7.40;3.80;;;15.40;72.80;;;;;;5032863;28;20725;-76
2023/09/20 04:37:25;;;;;;;10.55;4.65;;;15.50;72.90;;;;;;5015078;28;20763;-75
2023/09/20 04:39:51;;;;;;;10.27;4.03;;;15.40;73.90;;;;;;5032185;28;20452;-75
2023/09/20 04:42:17;;;;;;;10.93;3.93;;;15.30;74.40;;;;;;5031745;28;20744;-75
2023/09/20 04:44:42;;;;;;;6.65;4.15;;;15.30;75.10;;;;;;5013898;28;20472;-76
2023/09/20 04:47:10;;;;;;;11.23;4.10;;;15.30;76.30;;;;;;5031430;28;20816;-75
2023/09/20 04:49:37;;;;;;;7.78;4.40;;;15.30;76.00;;;;;;5032509;28;20387;-76
2023/09/20 04:52:04;;;;;;;11.80;3.90;;;15.30;75.60;;;;;;5031229;28;20738;-77
2023/09/20 04:54:30;;;;;;;7.85;3.85;;;15.30;74.90;;;;;;5031917;28;20395;-75
2023/09/20 04:56:55;;;;;;;7.97;3.70;;;15.40;74.70;;;;;;5014187;28;20386;-78
2023/09/20 04:59:22;;;;;;;10.20;4.22;;;15.40;75.00;;;;;;5032078;28;20395;-75
2023/09/20 05:01:49;;;;;;;11.05;4.45;;;15.40;74.50;;;;;;5031648;28;20394;-76
2023/09/20 05:04:15;;;;;;;9.60;4.03;;;15.30;75.20;;;;;;5031705;28;20410;-75
2023/09/20 05:06:41;;;;;;;13.00;4.40;;;15.30;76.50;;;;;;5031649;28;20391;-75
2023/09/20 05:09:11;;;;;;;8.20;4.10;;;15.30;76.90;;;;;;5031130;28;20387;-77
2023/09/20 05:11:36;;;;;;;7.60;4.13;;;15.30;77.70;;;;;;5013083;28;20429;-76
2023/09/20 05:14:05;;;;;;;9.40;4.10;;;15.30;78.30;;;;;;5031203;28;20387;-76
2023/09/20 05:16:31;;;;;;;8.60;4.00;;;15.20;78.30;;;;;;5034094;28;20383;-75
2023/09/20 05:18:56;;;;;;;11.50;3.80;;;15.20;79.00;;;;;;5030826;28;20877;-76
2023/09/20 05:21:22;;;;;;;9.93;4.13;;;15.30;78.50;;;;;;5030326;28;20407;-76
2023/09/20 05:23:48;;;;;;;7.40;4.10;;;15.20;78.80;;;;;;5030928;28;20891;-76
2023/09/20 05:26:14;;;;;;;7.82;3.83;;;15.20;79.30;;;;;;5030311;28;20426;-76
2023/09/20 05:28:39;;;;;;;12.30;4.60;;;15.20;79.70;;;;;;5012709;28;20802;-75
2023/09/20 05:31:07;;;;;;;8.87;4.00;;;15.30;78.50;;;;;;5030640;28;20482;-75
2023/09/20 05:33:34;;;;;;;7.17;3.90;;;15.30;77.80;;;;;;5030986;28;20407;-75
2023/09/20 05:35:59;;;;;;;9.05;4.00;;;15.40;77.50;;;;;;5030417;28;20469;-75
2023/09/20 05:38:26;;;;;;;12.95;4.30;;;15.50;76.30;;;;;;5030828;28;20464;-76
2023/09/20 05:40:51;;;;;;;7.53;4.10;;;15.60;75.10;;;;;;5012396;28;20448;-75
2023/09/20 05:43:17;;;;;;;10.10;4.33;;;15.60;73.80;;;;;;5031636;28;20473;-76
2023/09/20 05:45:43;;;;;;;8.50;4.33;;;15.50;75.40;;;;;;5012587;28;20391;-74
2023/09/20 05:48:09;;;;;;;11.00;5.20;;;15.50;77.10;;;;;;5034741;28;20383;-77
2023/09/20 05:50:35;;;;;;;10.38;4.43;;;15.50;76.50;;;;;;5032169;28;20426;-75
2023/09/20 05:53:03;;;;;;;10.18;5.70;;;15.60;75.90;;;;;;5026034;28;20446;-76
2023/09/20 05:55:32;;;;;;;14.13;7.05;;;15.60;75.30;;;;;;5031819;28;20414;-75
2023/09/20 05:57:58;;;;;;;13.57;7.50;;;15.60;74.70;;;;;;5021970;28;20395;-75
2023/09/20 06:00:24;;;;;;;10.20;4.45;;;15.70;74.40;;;;;;5015584;28;20866;-75
2023/09/20 06:02:50;;;;;;;12.55;5.22;;;15.80;73.30;;;;;;5014930;28;20770;-75
2023/09/20 06:05:16;;;;;;;12.77;4.20;;;15.90;70.90;;;;;;5028893;28;20391;-76
2023/09/20 06:07:44;;;;;;;14.00;5.53;;;16.00;69.80;;;;;;5030617;28;20422;-76
2023/09/20 06:10:16;;;;;;;9.80;4.40;;;16.10;68.80;;;;;;5032012;28;20426;-76
2023/09/20 06:12:42;;;;;;;6.90;3.90;;;16.10;69.10;;;;;;5032331;28;20787;-76
2023/09/20 06:15:08;;;;;;;8.50;3.93;;;16.20;67.10;;;;;;5032430;28;20403;-75
2023/09/20 06:17:34;;;;;;;8.60;3.70;;;16.10;68.00;;;;;;5032783;28;20453;-76
2023/09/20 06:20:00;;;;;;;6.50;4.30;;;16.20;67.50;;;;;;5032408;28;20398;-76
2023/09/20 06:22:29;;;;;;;16.05;4.40;;;16.20;67.60;;;;;;5033110;28;20404;-77
2023/09/20 06:24:58;;;;;;;9.15;4.50;;;16.20;67.70;;;;;;5032060;28;20435;-76
2023/09/20 06:27:30;;;;;;;15.57;4.93;;;16.30;66.60;;;;;;5032383;28;20402;-77
2023/09/20 06:29:56;;;;;;;12.25;4.35;;;16.30;67.50;;;;;;5032155;28;20379;-77
2023/09/20 06:32:22;;;;;;;7.10;3.83;;;16.30;66.60;;;;;;5032269;28;20804;-77
2023/09/20 06:34:48;;;;;;;16.43;4.00;;;16.40;66.80;;;;;;5033326;28;20410;-75
2023/09/20 06:37:13;;;;;;;5.20;3.57;;;16.40;65.50;;;;;;5016342;28;20397;-77
2023/09/20 06:39:39;;;;;;;11.75;4.00;;;16.50;65.00;;;;;;5033572;28;20509;-76
2023/09/20 06:42:05;;;;;;;8.63;3.88;;;16.60;64.00;;;;;;5031712;28;20821;-77
2023/09/20 06:44:38;;;;;;;10.70;3.85;;;16.60;63.90;;;;;;5026932;28;20398;-76
2023/09/20 06:47:05;;;;;;;11.05;4.30;;;16.70;63.10;;;;;;5032166;28;20872;-75
2023/09/20 06:49:31;;;;;;;13.13;4.50;;;16.80;61.20;;;;;;5032631;28;20388;-75
2023/09/20 06:52:01;;;;;;;18.05;4.90;;;16.90;61.40;;;;;;5031946;28;20430;-76
2023/09/20 06:54:28;;;;;;;10.60;3.90;;;17.10;59.40;;;;;;5032294;28;20944;-75
2023/09/20 06:56:53;;;;;;;5.30;3.53;;;17.20;58.20;;;;;;5012350;28;20729;-73
2023/09/20 06:59:19;;;;;;;10.53;3.70;;;17.40;56.80;;;;;;5031804;28;20387;-75
2023/09/20 07:01:44;;;;;;;9.82;3.90;;;17.50;55.90;;;;;;5023384;28;20822;-76
2023/09/20 07:04:10;;;;;;;21.80;5.10;;;17.60;55.00;;;;;;5032111;28;20478;-77
2023/09/20 07:06:37;;;;;;;9.77;4.03;;;17.50;55.20;;;;;;5032222;28;20407;-74
2023/09/20 07:09:03;;;;;;;20.08;11.25;;;17.50;55.00;;;;;;5030834;28;20418;-76
2023/09/20 07:11:29;;;;;;;30.35;17.92;;;17.60;55.60;;;;;;5029737;28;20407;-75
2023/09/20 07:13:55;;;;;;;12.27;5.43;;;17.60;55.30;;;;;;5031478;28;20817;-76
2023/09/20 07:16:20;;;;;;;7.50;3.72;;;17.70;54.10;;;;;;5029887;28;20410;-77
2023/09/20 07:18:46;;;;;;;8.40;3.83;;;17.80;53.20;;;;;;5030617;28;20391;-76
2023/09/20 07:21:14;;;;;;;9.27;3.58;;;17.70;53.90;;;;;;5030478;28;20387;-77
2023/09/20 07:23:41;;;;;;;10.18;3.63;;;17.80;52.90;;;;;;5012251;28;20431;-76
2023/09/20 07:26:07;;;;;;;10.70;3.67;;;17.80;52.40;;;;;;5030975;28;20486;-77
2023/09/20 07:28:36;;;;;;;6.07;3.47;;;17.90;52.40;;;;;;5030817;28;20829;-77
2023/09/20 07:31:03;;;;;;;9.43;3.40;;;17.90;51.30;;;;;;5010683;28;20471;-77
2023/09/20 07:33:38;;;;;;;8.45;3.90;;;17.90;51.40;;;;;;5013431;28;20405;-77
2023/09/20 07:36:05;;;;;;;9.52;3.50;;;18.00;50.80;;;;;;5011711;28;20393;-76
2023/09/20 07:38:32;;;;;;;6.20;2.90;;;18.10;50.90;;;;;;4994948;28;20603;-75
2023/09/20 07:41:13;;;;;;;5.68;3.20;;;18.00;51.40;;;;;;5015724;28;20388;-78
2023/09/20 07:43:47;;;;;;;9.25;3.60;;;18.00;51.40;;;;;;5031956;28;20414;-75
2023/09/20 07:46:13;;;;;;;7.90;3.40;;;18.00;51.10;;;;;;5034357;28;20930;-77
2023/09/20 07:48:50;;;;;;;6.18;3.50;;;18.10;50.80;;;;;;5015948;28;20771;-76
2023/09/20 07:51:28;;;;;;;5.60;3.10;;;18.10;50.60;;;;;;5030757;28;20788;-76
2023/09/20 07:53:55;;;;;;;9.85;3.10;;;18.20;49.60;;;;;;5013957;28;20457;-75
2023/09/20 07:56:21;;;;;;;8.32;3.10;;;18.20;49.70;;;;;;5026544;28;20955;-76
2023/09/20 07:58:47;;;;;;;9.73;3.60;;;18.30;48.80;;;;;;5028792;28;20384;-76
2023/09/20 08:01:18;;;;;;;8.75;3.70;;;18.30;48.60;;;;;;5031205;28;20756;-75
2023/09/20 08:03:50;;;;;;;13.32;3.28;;;18.30;48.00;;;;;;5015166;28;20397;-76
2023/09/20 08:06:17;;;;;;;7.40;3.40;;;18.40;47.80;;;;;;5012532;28;20381;-75
2023/09/20 08:08:42;;;;;;;10.07;3.75;;;18.40;47.80;;;;;;5014638;28;20406;-76
2023/09/20 08:11:08;;;;;;;7.53;3.40;;;18.60;46.70;;;;;;5032291;28;20430;-75
2023/09/20 08:13:33;;;;;;;11.50;3.50;;;18.70;46.60;;;;;;5033260;28;20406;-76
2023/09/20 08:16:02;;;;;;;8.57;3.38;;;18.80;45.90;;;;;;5026837;28;20395;-76
2023/09/20 08:21:12;;;;;;;8.63;3.40;;;19.20;43.70;;;;;;5025981;28;20932;-76
2023/09/20 09:02:12;;;;;;;6.68;2.92;;;20.50;37.10;;;;;;5033190;28;20922;-76
2023/09/20 09:04:37;;;;;;;7.35;2.63;;;20.50;36.80;;;;;;5031783;28;20880;-76
2023/09/20 09:07:04;;;;;;;6.43;2.42;;;20.50;36.80;;;;;;5034632;28;20401;-79
2023/09/20 09:09:30;;;;;;;5.93;2.65;;;20.40;37.00;;;;;;5009719;28;20536;-75
2023/09/20 09:11:57;;;;;;;4.20;2.70;;;20.50;36.50;;;;;;5034333;23;20434;-73
2023/09/20 09:14:24;;;;;;;10.57;2.95;;;20.50;37.50;;;;;;5012853;28;20445;-74
2023/09/20 09:17:01;;;;;;;7.05;3.00;;;20.60;36.80;;;;;;5034575;28;20767;-74
2023/09/20 09:19:27;;;;;;;7.05;2.90;;;20.60;37.20;;;;;;5014509;28;20403;-74
2023/09/20 09:21:52;;;;;;;6.25;2.95;;;20.80;36.70;;;;;;5043701;28;20444;-74
2023/09/20 09:24:18;;;;;;;8.75;2.60;;;20.90;35.60;;;;;;5050270;28;20787;-73
2023/09/20 09:26:46;;;;;;;7.93;2.70;;;21.00;35.40;;;;;;5048859;28;20711;-73
2023/09/20 09:29:18;;;;;;;6.82;2.40;;;21.20;34.30;;;;;;5049124;28;20432;-73
2023/09/20 09:31:50;;;;;;;5.35;2.70;;;21.50;34.40;;;;;;5050515;28;20409;-74
2023/09/20 09:34:20;;;;;;;8.68;3.63;;;21.60;33.80;;;;;;5051275;28;20397;-76
2023/09/20 09:36:46;;;;;;;7.50;2.60;;;22.00;32.90;;;;;;5052861;28;20389;-74
2023/09/20 09:39:14;;;;;;;5.20;2.30;;;22.20;32.00;;;;;;5050905;28;20377;-74
2023/09/20 09:41:42;;;;;;;6.65;2.58;;;22.40;31.70;;;;;;5032019;28;20397;-73
2023/09/20 09:44:07;;;;;;;7.72;2.80;;;22.60;31.40;;;;;;5050557;28;20386;-73
2023/09/20 09:46:34;;;;;;;6.50;2.40;;;22.80;31.00;;;;;;5050327;28;20447;-73
2023/09/20 09:49:02;;;;;;;6.30;2.30;;;22.90;30.50;;;;;;5050311;28;20413;-74
2023/09/20 09:51:32;;;;;;;3.50;2.05;;;23.00;29.00;;;;;;5049764;28;20489;-74
2023/09/20 09:54:00;;;;;;;6.00;2.20;;;22.90;29.30;;;;;;5050211;28;20417;-74
2023/09/20 09:56:27;;;;;;;6.32;2.10;;;22.80;29.20;;;;;;5050122;28;20484;-74
2023/09/20 09:58:52;;;;;;;3.63;1.83;;;22.80;29.70;;;;;;5050080;28;20389;-74
2023/09/20 10:01:19;;;;;;;4.43;2.33;;;22.70;30.10;;;;;;5049804;28;20388;-74
2023/09/20 10:03:50;;;;;;;7.70;2.30;;;22.70;30.40;;;;;;5050619;28;20385;-74
2023/09/20 10:06:26;;;;;;;6.73;2.50;;;22.70;30.40;;;;;;5050265;28;20377;-73
2023/09/20 10:08:53;;;;;;;4.82;2.17;;;22.90;30.00;;;;;;5049954;28;20935;-74
2023/09/20 10:11:22;;;;;;;5.65;2.35;;;22.90;29.50;;;;;;5049334;28;20393;-73
2023/09/20 10:13:50;;;;;;;6.30;2.30;;;22.80;29.60;;;;;;5049992;28;20774;-74
2023/09/20 10:16:18;;;;;;;6.72;2.00;;;22.90;30.00;;;;;;5049737;28;20419;-73
2023/09/20 10:18:53;;;;;;;5.95;2.00;;;23.10;29.60;;;;;;5049914;28;20378;-73
2023/09/20 10:21:23;;;;;;;5.93;2.30;;;23.50;28.80;;;;;;5050262;28;20380;-74
2023/09/20 10:24:17;;;;;;;3.20;2.20;;;23.60;28.00;;;;;;5050639;28;20416;-74
2023/09/20 10:26:43;;;;;;;6.32;2.78;;;23.80;27.70;;;;;;5051272;28;20413;-73
2023/09/20 10:29:28;;;;;;;5.43;2.20;;;23.90;27.70;;;;;;5050369;28;20424;-75
2023/09/20 10:31:55;;;;;;;4.90;2.20;;;24.00;27.40;;;;;;5049964;28;20409;-74
2023/09/20 10:34:22;;;;;;;3.80;2.15;;;24.00;27.10;;;;;;5049658;28;20381;-73
2023/09/20 10:36:52;;;;;;;9.70;2.20;;;24.00;26.90;;;;;;5031929;28;20523;-73
2023/09/20 10:39:18;;;;;;;6.68;2.28;;;23.80;26.70;;;;;;5049684;28;20468;-73
2023/09/20 10:41:48;;;;;;;5.73;2.57;;;23.80;27.10;;;;;;5051238;28;20412;-74
2023/09/20 10:44:30;;;;;;;3.92;1.90;;;23.70;26.80;;;;;;5054326;28;20478;-74
2023/09/20 10:47:04;;;;;;;4.07;1.88;;;23.70;25.50;;;;;;5054553;28;20393;-74
2023/09/20 10:49:52;;;;;;;5.93;1.80;;;23.80;23.90;;;;;;5056296;28;20459;-73
2023/09/20 10:52:37;;;;;;;8.27;1.73;;;24.00;22.50;;;;;;5055543;28;20405;-73
2023/09/20 10:55:18;;;;;;;3.57;1.60;;;24.20;21.50;;;;;;5056597;28;20865;-74
2023/09/20 10:57:45;;;;;;;5.30;1.90;;;24.20;20.90;;;;;;5054047;28;20408;-74
2023/09/20 11:00:14;;;;;;;3.00;1.58;;;24.20;21.40;;;;;;5053008;28;20382;-74
2023/09/20 11:02:40;;;;;;;3.58;1.73;;;24.30;20.90;;;;;;5052666;28;20409;-74
2023/09/20 11:05:06;;;;;;;5.28;1.98;;;24.40;20.10;;;;;;5052944;28;20393;-75
2023/09/20 11:07:35;;;;;;;7.90;1.92;;;24.40;19.60;;;;;;5052825;28;20741;-76
2023/09/20 11:10:02;;;;;;;9.50;1.80;;;24.50;19.80;;;;;;5052831;28;20404;-74
2023/09/20 11:12:28;;;;;;;4.47;2.10;;;24.30;20.80;;;;;;5053047;28;20416;-73
2023/09/20 11:14:55;;;;;;;3.88;1.50;;;24.30;21.00;;;;;;5052597;28;20390;-74
2023/09/20 11:17:20;;;;;;;3.55;1.60;;;24.20;20.80;;;;;;5035147;28;20452;-74
2023/09/20 11:19:47;;;;;;;3.60;1.97;;;24.30;21.30;;;;;;5034930;28;20443;-75
2023/09/20 11:22:18;;;;;;;2.80;1.30;;;24.40;20.20;;;;;;5052626;28;20397;-73
2023/09/20 11:24:44;;;;;;;2.85;1.45;;;24.30;20.30;;;;;;5052517;28;20421;-74
2023/09/20 11:27:11;;;;;;;5.60;1.70;;;24.30;20.50;;;;;;5052710;28;20443;-73
2023/09/20 11:29:40;;;;;;;3.40;1.50;;;24.40;20.00;;;;;;5052615;28;20447;-73
2023/09/20 11:32:12;;;;;;;3.70;1.90;;;24.70;20.00;;;;;;5052135;28;20466;-74
2023/09/20 11:34:44;;;;;;;6.45;2.10;;;24.90;18.40;;;;;;5052722;28;20381;-74
2023/09/20 11:37:10;;;;;;;4.17;1.60;;;24.90;17.90;;;;;;5053123;28;20769;-75
2023/09/20 11:39:36;;;;;;;9.07;1.95;;;24.90;17.90;;;;;;5053009;28;20451;-73
2023/09/20 11:42:04;;;;;;;5.20;1.80;;;24.90;18.00;;;;;;5052796;28;20386;-74
2023/09/20 11:44:34;;;;;;;3.33;1.70;;;24.80;17.80;;;;;;5051678;28;20442;-74
2023/09/20 11:47:00;;;;;;;3.13;1.80;;;24.80;18.20;;;;;;5052271;28;20460;-74
2023/09/20 11:49:27;;;;;;;3.38;1.45;;;24.90;18.20;;;;;;5052455;28;20424;-75
2023/09/20 11:51:57;;;;;;;4.65;1.50;;;24.90;17.90;;;;;;5052318;28;20398;-75
2023/09/20 11:54:29;;;;;;;5.25;1.65;;;24.80;18.20;;;;;;5052351;28;20735;-76
2023/09/20 11:56:59;;;;;;;7.63;1.80;;;24.80;18.30;;;;;;5052400;28;20384;-74
2023/09/20 11:59:25;;;;;;;2.77;1.60;;;24.70;18.50;;;;;;5052694;28;20388;-74
2023/09/20 12:01:50;;;;;;;4.35;1.67;;;24.70;18.70;;;;;;5052571;28;20469;-73
2023/09/20 12:04:17;;;;;;;5.03;1.80;;;24.80;19.10;;;;;;5053101;28;20850;-75
2023/09/20 12:06:42;;;;;;;2.83;1.40;;;24.70;19.00;;;;;;5053133;28;20385;-74
2023/09/20 12:09:09;;;;;;;4.20;1.80;;;24.70;19.20;;;;;;5053293;28;20382;-74
2023/09/20 12:11:35;;;;;;;2.80;1.50;;;24.90;19.10;;;;;;5054083;28;20397;-73
2023/09/20 12:14:01;;;;;;;4.10;1.67;;;25.00;18.50;;;;;;5053547;28;20404;-74
2023/09/20 12:16:27;;;;;;;8.07;1.63;;;25.10;18.10;;;;;;5053706;28;20727;-73
2023/09/20 12:18:58;;;;;;;4.20;1.73;;;25.10;18.20;;;;;;5052000;28;20381;-73
2023/09/20 12:21:25;;;;;;;5.43;1.63;;;25.20;17.80;;;;;;5052502;28;20381;-74
2023/09/20 12:23:51;;;;;;;4.57;1.67;;;25.20;17.50;;;;;;5034957;28;20460;-75
2023/09/20 12:26:17;;;;;;;3.70;1.77;;;25.30;17.20;;;;;;5052363;28;20977;-76
2023/09/20 12:28:44;;;;;;;2.60;1.60;;;25.50;16.50;;;;;;5051606;28;20400;-73
2023/09/20 12:31:10;;;;;;;4.95;2.63;;;25.70;17.10;;;;;;5052260;28;20388;-76
2023/09/20 12:33:35;;;;;;;4.87;1.80;;;25.90;16.10;;;;;;5051641;28;20397;-74
2023/09/20 12:36:01;;;;;;;6.45;1.80;;;25.90;16.20;;;;;;5052209;28;20397;-74
2023/09/20 12:38:29;;;;;;;3.27;1.63;;;25.80;15.90;;;;;;5051431;28;20731;-74
2023/09/20 12:40:58;;;;;;;4.25;1.50;;;25.80;16.20;;;;;;5050786;28;20408;-74
2023/09/20 12:43:24;;;;;;;5.20;2.10;;;26.00;16.10;;;;;;5050881;28;20401;-74
2023/09/20 12:45:52;;;;;;;3.40;2.10;;;26.00;15.60;;;;;;5051040;28;20386;-75
2023/09/20 12:48:18;;;;;;;7.82;2.20;;;26.10;15.90;;;;;;5051028;28;20389;-74
2023/09/20 12:50:46;;;;;;;3.40;2.10;;;26.20;15.80;;;;;;5051458;28;20896;-74
2023/09/20 12:53:12;;;;;;;2.67;1.60;;;26.30;15.80;;;;;;5050760;28;20479;-74
2023/09/20 12:55:39;;;;;;;5.53;1.70;;;26.40;15.40;;;;;;5051355;28;20390;-73
2023/09/20 12:58:10;;;;;;;4.05;1.70;;;26.50;15.00;;;;;;5051016;28;20377;-74
2023/09/20 13:00:37;;;;;;;6.80;1.90;;;26.60;14.90;;;;;;5051474;28;20428;-74
2023/09/20 13:03:08;;;;;;;8.48;2.00;;;26.80;15.10;;;;;;5051056;28;20388;-73
2023/09/20 13:05:35;;;;;;;3.60;2.00;;;26.90;14.50;;;;;;5051477;28;20418;-74
2023/09/20 13:08:01;;;;;;;4.13;1.60;;;27.00;15.40;;;;;;5051155;28;20417;-74
2023/09/20 13:10:27;;;;;;;2.47;1.90;;;26.90;14.70;;;;;;5053893;28;20463;-73
2023/09/20 13:12:53;;;;;;;4.70;2.20;;;26.80;15.20;;;;;;5053777;28;20488;-73
2023/09/20 13:15:19;;;;;;;3.50;2.07;;;26.80;15.20;;;;;;5053650;28;20413;-73
2023/09/20 13:17:47;;;;;;;5.43;2.05;;;26.80;14.90;;;;;;5050617;28;20397;-73
2023/09/20 13:20:14;;;;;;;5.80;1.77;;;26.70;14.80;;;;;;5050521;28;20404;-74
2023/09/20 13:22:41;;;;;;;4.55;2.30;;;26.30;15.60;;;;;;5032187;28;20522;-74
2023/09/20 13:25:19;;;;;;;4.00;2.30;;;26.20;14.90;;;;;;5050578;28;20447;-74
2023/09/20 13:27:45;;;;;;;4.50;2.10;;;26.00;15.80;;;;;;5050152;28;20393;-73